sensor_id;sensor_type;location;lat;lon;timestamp;P1;durP1;ratioP1;P2;durP2;ratioP2
10473;SDS011;5284;50.446;7.904;2023-04-25T00:03:44;15.15;;;7.72;;
10473;SDS011;5284;50.446;7.904;2023-04-25T00:08:47;19.92;;;8.90;;
10473;SDS011;5284;50.446;7.904;2023-04-25T00:13:50;17.70;;;8.13;;
10473;SDS011;5284;50.446;7.904;2023-04-25T00:18:55;19.30;;;8.38;;
10473;SDS011;5284;50.446;7.904;2023-04-25T00:23:58;32.25;;;9.05;;
10473;SDS011;5284;50.446;7.904;2023-04-25T00:29:01;33.35;;;8.98;;
10473;SDS011;5284;50.446;7.904;2023-04-25T00:34:05;17.92;;;8.82;;
10473;SDS011;5284;50.446;7.904;2023-04-25T00:39:09;28.30;;;9.10;;
10473;SDS011;5284;50.446;7.904;2023-04-25T00:44:12;19.17;;;8.68;;
10473;SDS011;5284;50.446;7.904;2023-04-25T00:49:17;24.60;;;7.72;;
10473;SDS011;5284;50.446;7.904;2023-04-25T00:54:19;17.90;;;7.80;;
10473;SDS011;5284;50.446;7.904;2023-04-25T00:59:22;18.48;;;8.48;;
10473;SDS011;5284;50.446;7.904;2023-04-25T01:04:28;18.52;;;7.55;;
10473;SDS011;5284;50.446;7.904;2023-04-25T01:09:31;20.08;;;7.65;;
10473;SDS011;5284;50.446;7.904;2023-04-25T01:14:34;25.05;;;9.00;;
10473;SDS011;5284;50.446;7.904;2023-04-25T01:19:41;16.52;;;7.72;;
10473;SDS011;5284;50.446;7.904;2023-04-25T01:24:45;27.58;;;8.93;;
10473;SDS011;5284;50.446;7.904;2023-04-25T01:29:48;29.58;;;9.02;;
10473;SDS011;5284;50.446;7.904;2023-04-25T01:34:53;21.02;;;8.38;;
10473;SDS011;5284;50.446;7.904;2023-04-25T01:39:57;26.05;;;8.38;;
10473;SDS011;5284;50.446;7.904;2023-04-25T01:45:00;20.27;;;7.68;;
10473;SDS011;5284;50.446;7.904;2023-04-25T01:50:03;20.65;;;8.27;;
10473;SDS011;5284;50.446;7.904;2023-04-25T01:55:09;25.05;;;7.55;;
10473;SDS011;5284;50.446;7.904;2023-04-25T02:00:19;26.20;;;7.70;;
10473;SDS011;5284;50.446;7.904;2023-04-25T02:05:22;26.38;;;8.50;;
10473;SDS011;5284;50.446;7.904;2023-04-25T02:10:27;16.25;;;7.07;;
10473;SDS011;5284;50.446;7.904;2023-04-25T02:15:52;23.75;;;7.93;;
10473;SDS011;5284;50.446;7.904;2023-04-25T02:20:55;20.58;;;7.32;;
10473;SDS011;5284;50.446;7.904;2023-04-25T02:25:59;28.30;;;7.82;;
10473;SDS011;5284;50.446;7.904;2023-04-25T02:31:02;14.07;;;6.65;;
10473;SDS011;5284;50.446;7.904;2023-04-25T02:36:05;19.60;;;6.75;;
10473;SDS011;5284;50.446;7.904;2023-04-25T02:41:10;23.95;;;6.65;;
10473;SDS011;5284;50.446;7.904;2023-04-25T02:46:13;17.00;;;6.40;;
10473;SDS011;5284;50.446;7.904;2023-04-25T02:51:29;16.92;;;6.38;;
10473;SDS011;5284;50.446;7.904;2023-04-25T02:56:33;20.15;;;7.18;;
10473;SDS011;5284;50.446;7.904;2023-04-25T03:01:37;22.83;;;7.85;;
10473;SDS011;5284;50.446;7.904;2023-04-25T03:06:40;30.58;;;9.63;;
10473;SDS011;5284;50.446;7.904;2023-04-25T03:11:44;21.33;;;7.85;;
10473;SDS011;5284;50.446;7.904;2023-04-25T03:16:48;25.23;;;7.10;;
10473;SDS011;5284;50.446;7.904;2023-04-25T03:21:51;17.45;;;7.55;;
10473;SDS011;5284;50.446;7.904;2023-04-25T03:26:56;26.15;;;7.20;;
10473;SDS011;5284;50.446;7.904;2023-04-25T03:31:59;19.95;;;6.90;;
10473;SDS011;5284;50.446;7.904;2023-04-25T03:37:02;18.55;;;6.72;;
10473;SDS011;5284;50.446;7.904;2023-04-25T03:42:11;22.13;;;9.25;;
10473;SDS011;5284;50.446;7.904;2023-04-25T03:47:13;24.02;;;8.88;;
10473;SDS011;5284;50.446;7.904;2023-04-25T03:52:16;21.85;;;9.55;;
10473;SDS011;5284;50.446;7.904;2023-04-25T03:57:22;34.40;;;9.27;;
10473;SDS011;5284;50.446;7.904;2023-04-25T04:02:27;22.70;;;8.27;;
10473;SDS011;5284;50.446;7.904;2023-04-25T04:07:32;30.42;;;9.05;;
10473;SDS011;5284;50.446;7.904;2023-04-25T04:12:39;35.03;;;9.15;;
10473;SDS011;5284;50.446;7.904;2023-04-25T04:17:42;36.72;;;10.82;;
10473;SDS011;5284;50.446;7.904;2023-04-25T04:22:46;29.40;;;11.68;;
10473;SDS011;5284;50.446;7.904;2023-04-25T04:27:51;29.90;;;11.55;;
10473;SDS011;5284;50.446;7.904;2023-04-25T04:33:02;19.92;;;8.13;;
10473;SDS011;5284;50.446;7.904;2023-04-25T04:38:06;26.95;;;8.23;;
10473;SDS011;5284;50.446;7.904;2023-04-25T04:43:13;35.42;;;8.40;;
10473;SDS011;5284;50.446;7.904;2023-04-25T04:48:36;29.63;;;11.18;;
10473;SDS011;5284;50.446;7.904;2023-04-25T04:54:16;32.55;;;10.57;;
10473;SDS011;5284;50.446;7.904;2023-04-25T05:05:16;50.38;;;9.40;;
10473;SDS011;5284;50.446;7.904;2023-04-25T05:10:32;28.80;;;9.00;;
10473;SDS011;5284;50.446;7.904;2023-04-25T05:15:54;28.05;;;7.78;;
10473;SDS011;5284;50.446;7.904;2023-04-25T05:21:23;17.38;;;7.43;;
10473;SDS011;5284;50.446;7.904;2023-04-25T05:26:49;17.95;;;7.00;;
10473;SDS011;5284;50.446;7.904;2023-04-25T05:31:55;43.25;;;7.20;;
10473;SDS011;5284;50.446;7.904;2023-04-25T05:36:58;20.30;;;6.35;;
10473;SDS011;5284;50.446;7.904;2023-04-25T05:42:04;23.58;;;6.50;;
10473;SDS011;5284;50.446;7.904;2023-04-25T05:47:38;18.77;;;5.07;;
10473;SDS011;5284;50.446;7.904;2023-04-25T05:52:47;17.95;;;7.30;;
10473;SDS011;5284;50.446;7.904;2023-04-25T05:58:04;12.30;;;4.25;;
10473;SDS011;5284;50.446;7.904;2023-04-25T06:03:11;23.88;;;6.32;;
10473;SDS011;5284;50.446;7.904;2023-04-25T06:08:20;41.28;;;13.90;;
10473;SDS011;5284;50.446;7.904;2023-04-25T06:13:22;14.32;;;5.53;;
10473;SDS011;5284;50.446;7.904;2023-04-25T06:18:27;17.40;;;5.82;;
10473;SDS011;5284;50.446;7.904;2023-04-25T06:23:30;22.05;;;8.65;;
10473;SDS011;5284;50.446;7.904;2023-04-25T06:28:40;30.02;;;12.60;;
10473;SDS011;5284;50.446;7.904;2023-04-25T06:33:45;24.42;;;9.32;;
10473;SDS011;5284;50.446;7.904;2023-04-25T06:38:51;39.00;;;15.50;;
10473;SDS011;5284;50.446;7.904;2023-04-25T06:43:54;21.20;;;8.23;;
10473;SDS011;5284;50.446;7.904;2023-04-25T06:49:08;18.75;;;6.53;;
10473;SDS011;5284;50.446;7.904;2023-04-25T06:54:12;21.98;;;6.35;;
10473;SDS011;5284;50.446;7.904;2023-04-25T06:59:24;14.65;;;7.07;;
10473;SDS011;5284;50.446;7.904;2023-04-25T07:04:29;20.48;;;7.05;;
10473;SDS011;5284;50.446;7.904;2023-04-25T07:09:33;19.17;;;6.82;;
10473;SDS011;5284;50.446;7.904;2023-04-25T07:14:35;18.23;;;5.10;;
10473;SDS011;5284;50.446;7.904;2023-04-25T07:19:43;28.43;;;8.07;;
10473;SDS011;5284;50.446;7.904;2023-04-25T07:24:47;19.45;;;9.02;;
10473;SDS011;5284;50.446;7.904;2023-04-25T07:34:59;22.13;;;7.65;;
10473;SDS011;5284;50.446;7.904;2023-04-25T07:40:03;19.48;;;7.80;;
10473;SDS011;5284;50.446;7.904;2023-04-25T07:45:10;20.35;;;7.85;;
10473;SDS011;5284;50.446;7.904;2023-04-25T07:50:16;17.13;;;7.22;;
10473;SDS011;5284;50.446;7.904;2023-04-25T07:55:21;23.98;;;7.88;;
10473;SDS011;5284;50.446;7.904;2023-04-25T08:00:48;19.75;;;7.30;;
10473;SDS011;5284;50.446;7.904;2023-04-25T08:06:10;21.98;;;7.93;;
10473;SDS011;5284;50.446;7.904;2023-04-25T08:11:23;16.02;;;6.75;;
10473;SDS011;5284;50.446;7.904;2023-04-25T08:16:26;20.88;;;7.85;;
10473;SDS011;5284;50.446;7.904;2023-04-25T08:21:33;27.48;;;7.35;;
10473;SDS011;5284;50.446;7.904;2023-04-25T08:26:40;26.85;;;8.55;;
10473;SDS011;5284;50.446;7.904;2023-04-25T08:31:48;13.70;;;7.07;;
10473;SDS011;5284;50.446;7.904;2023-04-25T08:36:53;17.45;;;6.15;;
10473;SDS011;5284;50.446;7.904;2023-04-25T08:42:08;22.77;;;8.23;;
10473;SDS011;5284;50.446;7.904;2023-04-25T08:47:12;10.73;;;5.03;;
10473;SDS011;5284;50.446;7.904;2023-04-25T08:52:27;13.88;;;5.65;;
10473;SDS011;5284;50.446;7.904;2023-04-25T08:57:35;18.85;;;4.88;;
10473;SDS011;5284;50.446;7.904;2023-04-25T09:02:39;18.60;;;5.80;;
10473;SDS011;5284;50.446;7.904;2023-04-25T09:07:46;16.48;;;4.57;;
10473;SDS011;5284;50.446;7.904;2023-04-25T09:13:04;16.93;;;3.93;;
10473;SDS011;5284;50.446;7.904;2023-04-25T09:18:23;15.18;;;4.20;;
10473;SDS011;5284;50.446;7.904;2023-04-25T09:23:38;20.55;;;4.10;;
10473;SDS011;5284;50.446;7.904;2023-04-25T09:28:42;40.78;;;3.65;;
10473;SDS011;5284;50.446;7.904;2023-04-25T09:33:52;21.38;;;3.33;;
10473;SDS011;5284;50.446;7.904;2023-04-25T09:39:14;9.75;;;3.53;;
10473;SDS011;5284;50.446;7.904;2023-04-25T09:44:27;13.30;;;3.90;;
10473;SDS011;5284;50.446;7.904;2023-04-25T09:49:32;13.70;;;3.25;;
10473;SDS011;5284;50.446;7.904;2023-04-25T09:54:41;14.30;;;3.58;;
10473;SDS011;5284;50.446;7.904;2023-04-25T09:59:48;11.73;;;3.28;;
10473;SDS011;5284;50.446;7.904;2023-04-25T10:04:54;18.70;;;4.38;;
10473;SDS011;5284;50.446;7.904;2023-04-25T10:10:04;18.80;;;4.13;;
10473;SDS011;5284;50.446;7.904;2023-04-25T10:15:08;16.83;;;3.72;;
10473;SDS011;5284;50.446;7.904;2023-04-25T10:20:12;17.65;;;3.15;;
10473;SDS011;5284;50.446;7.904;2023-04-25T10:25:17;14.20;;;3.50;;
10473;SDS011;5284;50.446;7.904;2023-04-25T10:30:20;8.82;;;2.58;;
10473;SDS011;5284;50.446;7.904;2023-04-25T10:35:24;8.85;;;2.65;;
10473;SDS011;5284;50.446;7.904;2023-04-25T10:40:30;14.10;;;2.35;;
10473;SDS011;5284;50.446;7.904;2023-04-25T10:45:39;14.35;;;2.67;;
10473;SDS011;5284;50.446;7.904;2023-04-25T10:51:06;18.50;;;2.58;;
10473;SDS011;5284;50.446;7.904;2023-04-25T10:56:12;17.03;;;3.27;;
10473;SDS011;5284;50.446;7.904;2023-04-25T11:01:21;19.38;;;3.40;;
10473;SDS011;5284;50.446;7.904;2023-04-25T11:06:29;12.48;;;2.67;;
10473;SDS011;5284;50.446;7.904;2023-04-25T11:11:47;9.63;;;2.90;;
10473;SDS011;5284;50.446;7.904;2023-04-25T11:16:56;13.48;;;3.72;;
10473;SDS011;5284;50.446;7.904;2023-04-25T11:22:02;18.83;;;4.20;;
10473;SDS011;5284;50.446;7.904;2023-04-25T11:27:07;14.80;;;3.47;;
10473;SDS011;5284;50.446;7.904;2023-04-25T11:32:11;14.68;;;3.03;;
10473;SDS011;5284;50.446;7.904;2023-04-25T11:37:16;12.07;;;3.28;;
10473;SDS011;5284;50.446;7.904;2023-04-25T11:42:20;11.32;;;3.75;;
10473;SDS011;5284;50.446;7.904;2023-04-25T11:47:27;16.35;;;3.58;;
10473;SDS011;5284;50.446;7.904;2023-04-25T11:57:42;32.08;;;3.72;;
10473;SDS011;5284;50.446;7.904;2023-04-25T12:02:50;19.42;;;3.10;;
10473;SDS011;5284;50.446;7.904;2023-04-25T12:07:54;30.87;;;3.33;;
10473;SDS011;5284;50.446;7.904;2023-04-25T12:12:59;9.63;;;2.22;;
10473;SDS011;5284;50.446;7.904;2023-04-25T12:18:04;7.78;;;2.20;;
10473;SDS011;5284;50.446;7.904;2023-04-25T12:23:09;8.52;;;2.53;;
10473;SDS011;5284;50.446;7.904;2023-04-25T12:28:15;20.60;;;2.83;;
10473;SDS011;5284;50.446;7.904;2023-04-25T12:33:20;7.97;;;2.67;;
10473;SDS011;5284;50.446;7.904;2023-04-25T12:38:24;9.48;;;2.70;;
10473;SDS011;5284;50.446;7.904;2023-04-25T12:43:31;13.10;;;2.53;;
10473;SDS011;5284;50.446;7.904;2023-04-25T12:48:35;15.00;;;3.17;;
10473;SDS011;5284;50.446;7.904;2023-04-25T12:53:39;7.40;;;2.83;;
10473;SDS011;5284;50.446;7.904;2023-04-25T12:58:44;9.55;;;1.98;;
10473;SDS011;5284;50.446;7.904;2023-04-25T13:03:47;5.72;;;1.88;;
10473;SDS011;5284;50.446;7.904;2023-04-25T13:08:52;7.53;;;2.00;;
10473;SDS011;5284;50.446;7.904;2023-04-25T13:13:58;10.38;;;1.95;;
10473;SDS011;5284;50.446;7.904;2023-04-25T13:19:02;11.85;;;2.90;;
10473;SDS011;5284;50.446;7.904;2023-04-25T13:24:07;46.17;;;12.45;;
10473;SDS011;5284;50.446;7.904;2023-04-25T13:29:14;17.70;;;4.50;;
10473;SDS011;5284;50.446;7.904;2023-04-25T13:34:17;13.77;;;3.42;;
10473;SDS011;5284;50.446;7.904;2023-04-25T13:39:20;12.85;;;2.33;;
10473;SDS011;5284;50.446;7.904;2023-04-25T13:44:28;8.52;;;3.00;;
10473;SDS011;5284;50.446;7.904;2023-04-25T13:49:31;20.80;;;3.05;;
10473;SDS011;5284;50.446;7.904;2023-04-25T13:54:34;12.27;;;2.78;;
10473;SDS011;5284;50.446;7.904;2023-04-25T13:59:38;13.45;;;1.95;;
10473;SDS011;5284;50.446;7.904;2023-04-25T14:04:43;20.13;;;3.72;;
10473;SDS011;5284;50.446;7.904;2023-04-25T14:09:48;11.90;;;2.63;;
10473;SDS011;5284;50.446;7.904;2023-04-25T14:14:52;13.60;;;3.85;;
10473;SDS011;5284;50.446;7.904;2023-04-25T14:19:55;7.35;;;2.22;;
10473;SDS011;5284;50.446;7.904;2023-04-25T14:25:00;6.55;;;2.05;;
10473;SDS011;5284;50.446;7.904;2023-04-25T14:30:05;20.05;;;2.60;;
10473;SDS011;5284;50.446;7.904;2023-04-25T14:40:13;9.73;;;2.13;;
10473;SDS011;5284;50.446;7.904;2023-04-25T14:45:18;10.73;;;2.45;;
10473;SDS011;5284;50.446;7.904;2023-04-25T14:50:21;7.78;;;2.15;;
10473;SDS011;5284;50.446;7.904;2023-04-25T14:55:24;9.43;;;2.33;;
10473;SDS011;5284;50.446;7.904;2023-04-25T15:00:31;8.30;;;1.77;;
10473;SDS011;5284;50.446;7.904;2023-04-25T15:05:35;9.65;;;1.67;;
10473;SDS011;5284;50.446;7.904;2023-04-25T15:10:40;8.35;;;2.75;;
10473;SDS011;5284;50.446;7.904;2023-04-25T15:15:45;7.60;;;1.85;;
10473;SDS011;5284;50.446;7.904;2023-04-25T15:20:53;7.82;;;1.50;;
10473;SDS011;5284;50.446;7.904;2023-04-25T15:25:57;5.68;;;1.48;;
10473;SDS011;5284;50.446;7.904;2023-04-25T15:31:02;7.22;;;1.70;;
10473;SDS011;5284;50.446;7.904;2023-04-25T15:36:05;10.63;;;2.22;;
10473;SDS011;5284;50.446;7.904;2023-04-25T15:41:08;8.70;;;2.50;;
10473;SDS011;5284;50.446;7.904;2023-04-25T15:46:14;9.77;;;2.38;;
10473;SDS011;5284;50.446;7.904;2023-04-25T15:51:19;20.92;;;2.33;;
10473;SDS011;5284;50.446;7.904;2023-04-25T15:56:23;8.18;;;3.38;;
10473;SDS011;5284;50.446;7.904;2023-04-25T16:01:28;7.32;;;2.13;;
10473;SDS011;5284;50.446;7.904;2023-04-25T16:06:32;5.32;;;1.70;;
10473;SDS011;5284;50.446;7.904;2023-04-25T16:11:37;10.43;;;3.03;;
10473;SDS011;5284;50.446;7.904;2023-04-25T16:16:41;7.18;;;2.17;;
10473;SDS011;5284;50.446;7.904;2023-04-25T16:21:45;6.60;;;2.47;;
10473;SDS011;5284;50.446;7.904;2023-04-25T16:26:48;7.53;;;2.47;;
10473;SDS011;5284;50.446;7.904;2023-04-25T16:31:52;5.07;;;2.00;;
10473;SDS011;5284;50.446;7.904;2023-04-25T16:36:55;7.68;;;1.88;;
10473;SDS011;5284;50.446;7.904;2023-04-25T16:41:59;11.63;;;1.88;;
10473;SDS011;5284;50.446;7.904;2023-04-25T16:47:06;5.03;;;1.58;;
10473;SDS011;5284;50.446;7.904;2023-04-25T16:52:09;5.70;;;1.80;;
10473;SDS011;5284;50.446;7.904;2023-04-25T16:57:12;8.38;;;2.20;;
10473;SDS011;5284;50.446;7.904;2023-04-25T17:02:17;7.15;;;1.90;;
10473;SDS011;5284;50.446;7.904;2023-04-25T17:07:20;4.55;;;1.67;;
10473;SDS011;5284;50.446;7.904;2023-04-25T17:12:25;6.20;;;1.98;;
10473;SDS011;5284;50.446;7.904;2023-04-25T17:17:30;7.75;;;2.35;;
10473;SDS011;5284;50.446;7.904;2023-04-25T17:22:33;16.63;;;2.88;;
10473;SDS011;5284;50.446;7.904;2023-04-25T17:27:37;12.18;;;3.92;;
10473;SDS011;5284;50.446;7.904;2023-04-25T17:32:41;8.35;;;4.15;;
10473;SDS011;5284;50.446;7.904;2023-04-25T17:37:45;9.50;;;3.50;;
10473;SDS011;5284;50.446;7.904;2023-04-25T17:42:48;10.73;;;2.35;;
10473;SDS011;5284;50.446;7.904;2023-04-25T17:47:52;15.55;;;4.95;;
10473;SDS011;5284;50.446;7.904;2023-04-25T17:52:57;14.02;;;3.83;;
10473;SDS011;5284;50.446;7.904;2023-04-25T17:58:02;12.05;;;2.03;;
10473;SDS011;5284;50.446;7.904;2023-04-25T18:03:07;9.60;;;3.05;;
10473;SDS011;5284;50.446;7.904;2023-04-25T18:08:09;16.58;;;2.75;;
10473;SDS011;5284;50.446;7.904;2023-04-25T18:13:13;6.00;;;1.58;;
10473;SDS011;5284;50.446;7.904;2023-04-25T18:18:17;9.35;;;3.63;;
10473;SDS011;5284;50.446;7.904;2023-04-25T18:23:27;11.95;;;2.85;;
10473;SDS011;5284;50.446;7.904;2023-04-25T18:28:30;9.25;;;2.30;;
10473;SDS011;5284;50.446;7.904;2023-04-25T18:33:36;13.10;;;2.58;;
10473;SDS011;5284;50.446;7.904;2023-04-25T18:38:39;12.05;;;2.55;;
10473;SDS011;5284;50.446;7.904;2023-04-25T18:43:41;11.88;;;2.30;;
10473;SDS011;5284;50.446;7.904;2023-04-25T18:48:46;11.43;;;2.35;;
10473;SDS011;5284;50.446;7.904;2023-04-25T18:53:49;9.77;;;2.15;;
10473;SDS011;5284;50.446;7.904;2023-04-25T18:58:54;13.13;;;3.33;;
10473;SDS011;5284;50.446;7.904;2023-04-25T19:03:59;15.20;;;4.45;;
10473;SDS011;5284;50.446;7.904;2023-04-25T19:09:06;17.25;;;5.72;;
10473;SDS011;5284;50.446;7.904;2023-04-25T19:14:11;21.73;;;5.97;;
10473;SDS011;5284;50.446;7.904;2023-04-25T19:19:17;15.95;;;4.47;;
10473;SDS011;5284;50.446;7.904;2023-04-25T19:24:22;15.18;;;3.58;;
10473;SDS011;5284;50.446;7.904;2023-04-25T19:29:25;10.10;;;3.95;;
10473;SDS011;5284;50.446;7.904;2023-04-25T19:34:33;8.02;;;4.13;;
10473;SDS011;5284;50.446;7.904;2023-04-25T19:39:36;12.50;;;4.65;;
10473;SDS011;5284;50.446;7.904;2023-04-25T19:44:39;22.90;;;8.60;;
10473;SDS011;5284;50.446;7.904;2023-04-25T19:49:43;20.15;;;8.43;;
10473;SDS011;5284;50.446;7.904;2023-04-25T19:54:47;12.48;;;4.82;;
10473;SDS011;5284;50.446;7.904;2023-04-25T19:59:50;18.77;;;8.68;;
10473;SDS011;5284;50.446;7.904;2023-04-25T20:04:55;18.95;;;3.00;;
10473;SDS011;5284;50.446;7.904;2023-04-25T20:09:58;8.13;;;3.28;;
10473;SDS011;5284;50.446;7.904;2023-04-25T20:15:02;15.38;;;2.97;;
10473;SDS011;5284;50.446;7.904;2023-04-25T20:20:10;8.50;;;3.65;;
10473;SDS011;5284;50.446;7.904;2023-04-25T20:25:13;10.20;;;3.50;;
10473;SDS011;5284;50.446;7.904;2023-04-25T20:30:17;9.93;;;4.63;;
10473;SDS011;5284;50.446;7.904;2023-04-25T20:35:21;8.43;;;3.80;;
10473;SDS011;5284;50.446;7.904;2023-04-25T20:40:24;20.50;;;4.32;;
10473;SDS011;5284;50.446;7.904;2023-04-25T20:45:28;9.73;;;4.15;;
10473;SDS011;5284;50.446;7.904;2023-04-25T20:50:34;13.82;;;5.63;;
10473;SDS011;5284;50.446;7.904;2023-04-25T20:55:37;17.67;;;6.28;;
10473;SDS011;5284;50.446;7.904;2023-04-25T21:00:42;6.97;;;3.75;;
10473;SDS011;5284;50.446;7.904;2023-04-25T21:05:49;5.70;;;3.35;;
10473;SDS011;5284;50.446;7.904;2023-04-25T21:10:52;6.00;;;3.83;;
10473;SDS011;5284;50.446;7.904;2023-04-25T21:15:55;11.98;;;4.85;;
10473;SDS011;5284;50.446;7.904;2023-04-25T21:21:00;14.63;;;4.00;;
10473;SDS011;5284;50.446;7.904;2023-04-25T21:26:04;7.22;;;3.25;;
10473;SDS011;5284;50.446;7.904;2023-04-25T21:31:08;12.88;;;5.28;;
10473;SDS011;5284;50.446;7.904;2023-04-25T21:36:12;10.63;;;4.07;;
10473;SDS011;5284;50.446;7.904;2023-04-25T21:41:16;18.30;;;5.10;;
10473;SDS011;5284;50.446;7.904;2023-04-25T21:46:18;20.58;;;7.13;;
10473;SDS011;5284;50.446;7.904;2023-04-25T21:51:25;33.22;;;11.15;;
10473;SDS011;5284;50.446;7.904;2023-04-25T21:56:29;24.70;;;9.10;;
10473;SDS011;5284;50.446;7.904;2023-04-25T22:01:32;25.08;;;8.48;;
10473;SDS011;5284;50.446;7.904;2023-04-25T22:06:36;32.78;;;6.63;;
10473;SDS011;5284;50.446;7.904;2023-04-25T22:11:39;17.33;;;5.95;;
10473;SDS011;5284;50.446;7.904;2023-04-25T22:16:43;10.48;;;5.47;;
10473;SDS011;5284;50.446;7.904;2023-04-25T22:21:47;12.32;;;4.25;;
10473;SDS011;5284;50.446;7.904;2023-04-25T22:26:50;12.27;;;4.45;;
10473;SDS011;5284;50.446;7.904;2023-04-25T22:31:53;16.92;;;5.53;;
10473;SDS011;5284;50.446;7.904;2023-04-25T22:36:57;15.80;;;5.65;;
10473;SDS011;5284;50.446;7.904;2023-04-25T22:42:00;15.98;;;5.35;;
10473;SDS011;5284;50.446;7.904;2023-04-25T22:47:04;15.40;;;6.80;;
10473;SDS011;5284;50.446;7.904;2023-04-25T22:52:08;17.02;;;5.80;;
10473;SDS011;5284;50.446;7.904;2023-04-25T22:57:12;23.75;;;5.78;;
10473;SDS011;5284;50.446;7.904;2023-04-25T23:02:15;8.20;;;3.83;;
10473;SDS011;5284;50.446;7.904;2023-04-25T23:07:20;13.02;;;4.20;;
10473;SDS011;5284;50.446;7.904;2023-04-25T23:12:23;11.40;;;3.70;;
10473;SDS011;5284;50.446;7.904;2023-04-25T23:17:26;12.45;;;5.05;;
10473;SDS011;5284;50.446;7.904;2023-04-25T23:22:30;12.80;;;4.50;;
10473;SDS011;5284;50.446;7.904;2023-04-25T23:27:33;6.90;;;3.10;;
10473;SDS011;5284;50.446;7.904;2023-04-25T23:32:37;12.85;;;3.88;;
10473;SDS011;5284;50.446;7.904;2023-04-25T23:37:41;8.80;;;4.15;;
10473;SDS011;5284;50.446;7.904;2023-04-25T23:42:44;10.35;;;3.45;;
10473;SDS011;5284;50.446;7.904;2023-04-25T23:47:47;7.25;;;3.72;;
10473;SDS011;5284;50.446;7.904;2023-04-25T23:52:51;6.63;;;3.13;;
10473;SDS011;5284;50.446;7.904;2023-04-25T23:57:53;9.27;;;3.42;;
